Haywood, Virginia
Current Conditions -  °F | °C
As of 1:55 PM on Friday 21 Nov 2014 (Local Time) from KOMH Reporting Station
Clear Clear  
Wind Chill:   Ceiling: Unl
Heat Index:   Visibility: 10mi
Dew Point: -14°   Wind: 8mph
Humidity: 28%   Direction: 250°WSW
Pressure: 30.46"   Gusts: NA
Location:  38.45°N, 78.25°W
Report Text: KOMH 211855Z AUTO 25007KT 10SM CLR 03/M14 A3046 RMK AO2
Loading
Personal Weather Stations






























Interactive Weather Map New forecast layout! Learn more

10-Day Weather Forecast

Advertisements
Track Severe Weather on mobile